createdAt,value
2019-05-17T00:01:07.622Z,8.30
2019-05-17T00:03:37.960Z,9.30
2019-05-17T00:06:07.640Z,9.00
2019-05-17T00:08:38.381Z,8.53
2019-05-17T00:11:08.220Z,9.37
2019-05-17T00:13:39.052Z,9.33
2019-05-17T00:16:10.448Z,9.57
2019-05-17T00:18:40.199Z,9.33
2019-05-17T00:21:10.171Z,9.73
2019-05-17T00:23:40.087Z,9.87
2019-05-17T00:26:09.824Z,9.33
2019-05-17T00:28:39.540Z,9.57
2019-05-17T00:31:09.220Z,9.07
2019-05-17T00:33:39.865Z,9.37
2019-05-17T00:36:10.078Z,9.53
2019-05-17T00:38:48.105Z,9.90
2019-05-17T00:41:11.268Z,9.60
2019-05-17T00:43:41.156Z,9.63
2019-05-17T00:46:10.887Z,9.47
2019-05-17T00:48:40.696Z,9.60
2019-05-17T00:51:11.068Z,9.90
2019-05-17T00:53:40.779Z,9.40
2019-05-17T00:56:10.539Z,9.40
2019-05-17T00:58:41.611Z,10.17
2019-05-17T01:01:11.316Z,10.00
2019-05-17T01:03:41.132Z,9.43
2019-05-17T01:06:11.244Z,9.80
2019-05-17T01:08:41.147Z,10.03
2019-05-17T01:11:11.178Z,9.53
2019-05-17T01:13:40.999Z,9.67
2019-05-17T01:16:10.732Z,10.60
2019-05-17T01:18:40.411Z,9.33
2019-05-17T01:21:10.624Z,10.07
2019-05-17T01:23:40.271Z,10.00
2019-05-17T01:26:10.502Z,10.07
2019-05-17T01:28:40.479Z,10.03
2019-05-17T01:31:10.144Z,9.40
2019-05-17T01:33:39.792Z,9.90
2019-05-17T01:36:09.655Z,10.10
2019-05-17T01:38:39.387Z,9.57
2019-05-17T01:41:09.039Z,9.13
2019-05-17T01:43:38.707Z,9.33
2019-05-17T01:46:08.399Z,9.47
2019-05-17T01:48:38.185Z,8.97
2019-05-17T01:51:07.856Z,9.57
2019-05-17T01:53:37.491Z,9.00
2019-05-17T01:56:07.451Z,8.90
2019-05-17T01:58:37.164Z,9.57
2019-05-17T02:01:07.634Z,8.87
2019-05-17T02:03:37.727Z,8.87
2019-05-17T02:06:07.789Z,9.07
2019-05-17T02:08:37.552Z,8.87
2019-05-17T02:11:08.568Z,8.87
2019-05-17T02:13:38.371Z,9.30
2019-05-17T02:16:08.093Z,8.67
2019-05-17T02:18:37.873Z,8.53
2019-05-17T02:21:07.899Z,8.97
2019-05-17T02:23:37.847Z,8.53
2019-05-17T02:26:07.703Z,9.73
2019-05-17T02:28:37.703Z,8.83
2019-05-17T02:31:08.096Z,9.03
2019-05-17T02:33:38.041Z,9.20
2019-05-17T02:36:08.099Z,8.53
2019-05-17T02:38:38.021Z,9.10
2019-05-17T02:41:07.666Z,8.93
2019-05-17T02:43:38.445Z,9.40
2019-05-17T02:46:08.389Z,8.77
2019-05-17T02:48:38.066Z,9.30
2019-05-17T02:51:07.836Z,9.30
2019-05-17T02:53:37.865Z,9.47
2019-05-17T02:56:08.479Z,9.03
2019-05-17T02:58:38.151Z,8.80
2019-05-17T03:01:08.226Z,9.40
2019-05-17T03:03:38.140Z,9.33
2019-05-17T03:06:08.023Z,8.83
2019-05-17T03:08:37.756Z,9.33
2019-05-17T03:11:07.649Z,9.23
2019-05-17T03:13:37.698Z,10.23
2019-05-17T03:16:07.364Z,9.13
2019-05-17T03:18:37.051Z,9.70
2019-05-17T03:21:06.701Z,9.63
2019-05-17T03:23:36.420Z,9.27
2019-05-17T03:26:06.260Z,10.07
2019-05-17T03:28:37.392Z,9.97
2019-05-17T03:31:09.061Z,10.07
2019-05-17T03:33:39.153Z,9.87
2019-05-17T03:36:09.186Z,10.20
2019-05-17T03:38:38.912Z,9.60
2019-05-17T03:41:18.205Z,10.53
2019-05-17T03:43:44.216Z,11.73
2019-05-17T03:46:14.049Z,16.23
2019-05-17T03:48:43.978Z,27.57
2019-05-17T03:51:13.784Z,30.77
2019-05-17T03:53:44.344Z,13.17
2019-05-17T03:56:14.231Z,10.53
2019-05-17T03:58:44.292Z,10.77
2019-05-17T04:01:14.432Z,11.00
2019-05-17T04:03:44.392Z,10.77
2019-05-17T04:06:14.384Z,10.33
2019-05-17T04:08:44.032Z,10.73
2019-05-17T04:11:26.006Z,10.57
2019-05-17T04:13:45.495Z,10.87
2019-05-17T04:16:15.413Z,10.53
2019-05-17T04:18:45.055Z,10.57
2019-05-17T04:21:14.976Z,11.07
2019-05-17T04:23:44.730Z,11.07
2019-05-17T04:26:14.444Z,10.83
2019-05-17T04:28:44.366Z,10.60
2019-05-17T04:31:15.299Z,10.87
2019-05-17T04:33:45.245Z,11.30
2019-05-17T04:36:15.273Z,11.30
2019-05-17T04:38:44.933Z,10.83
2019-05-17T04:41:14.905Z,11.13
2019-05-17T04:43:44.804Z,10.47
2019-05-17T04:46:14.564Z,11.60
2019-05-17T04:48:44.243Z,11.53
2019-05-17T04:51:14.048Z,11.23
2019-05-17T04:53:43.827Z,11.07
2019-05-17T04:56:14.335Z,10.50
2019-05-17T04:58:44.083Z,11.17
2019-05-17T05:01:13.859Z,10.67
2019-05-17T05:03:43.694Z,10.97
2019-05-17T05:06:13.672Z,11.20
2019-05-17T05:08:44.660Z,10.80
2019-05-17T05:11:15.381Z,10.70
2019-05-17T05:13:45.330Z,10.73
2019-05-17T05:16:15.023Z,9.90
2019-05-17T05:18:44.940Z,10.57
2019-05-17T05:21:14.616Z,10.20
2019-05-17T05:23:44.312Z,11.00
2019-05-17T05:26:14.039Z,9.73
2019-05-17T05:28:43.916Z,9.97
2019-05-17T05:31:13.863Z,10.33
2019-05-17T05:33:43.536Z,9.27
2019-05-17T05:36:13.467Z,9.63
2019-05-17T05:38:43.152Z,8.70
2019-05-17T05:41:12.818Z,8.80
2019-05-17T05:43:42.455Z,8.70
2019-05-17T05:46:12.151Z,8.97
2019-05-17T05:48:41.820Z,8.07
2019-05-17T05:51:13.750Z,8.73
2019-05-17T05:53:43.539Z,9.23
2019-05-17T05:56:13.607Z,8.77
2019-05-17T05:58:43.730Z,8.63
2019-05-17T06:01:13.515Z,9.40
2019-05-17T06:03:43.253Z,8.97
2019-05-17T06:06:12.915Z,9.93
2019-05-17T06:08:42.647Z,9.27
2019-05-17T06:11:12.619Z,9.90
2019-05-17T06:13:42.715Z,9.20
2019-05-17T06:16:12.443Z,9.57
2019-05-17T06:18:42.616Z,9.00
2019-05-17T06:21:12.652Z,9.33
2019-05-17T06:23:42.578Z,8.97
2019-05-17T06:26:12.662Z,8.97
2019-05-17T06:28:42.655Z,9.77
2019-05-17T06:31:15.013Z,9.37
2019-05-17T06:33:43.779Z,9.53
2019-05-17T06:36:13.906Z,9.90
2019-05-17T06:38:43.796Z,9.63
2019-05-17T06:41:13.795Z,9.83
2019-05-17T06:43:43.555Z,8.87
2019-05-17T06:46:13.517Z,9.07
2019-05-17T06:48:43.172Z,9.67
2019-05-17T06:51:12.817Z,9.37
2019-05-17T06:53:43.591Z,9.17
2019-05-17T06:56:13.752Z,8.73
2019-05-17T06:58:43.710Z,10.93
2019-05-17T07:01:13.451Z,9.17
2019-05-17T07:03:43.187Z,8.70
2019-05-17T07:06:14.792Z,9.10
2019-05-17T07:08:44.567Z,9.17
2019-05-17T07:11:14.232Z,9.23
2019-05-17T07:13:43.888Z,8.90
2019-05-17T07:16:13.575Z,9.20
2019-05-17T07:18:43.299Z,9.10
2019-05-17T07:21:13.111Z,8.93
2019-05-17T07:23:43.319Z,8.20
2019-05-17T07:26:14.364Z,9.00
2019-05-17T07:28:44.055Z,8.90
2019-05-17T07:31:13.732Z,8.90
2019-05-17T07:33:43.724Z,8.67
2019-05-17T07:36:13.627Z,9.00
2019-05-17T07:38:44.162Z,8.57
2019-05-17T07:41:13.807Z,8.60
2019-05-17T07:43:45.010Z,9.43
2019-05-17T07:46:14.663Z,8.90
2019-05-17T07:48:44.337Z,8.70
2019-05-17T07:51:14.024Z,9.13
2019-05-17T07:53:43.738Z,9.40
2019-05-17T07:56:13.421Z,8.93
2019-05-17T07:58:43.201Z,8.80
2019-05-17T08:01:12.921Z,8.87
2019-05-17T08:03:42.598Z,8.33
2019-05-17T08:06:12.315Z,8.90
2019-05-17T08:08:41.963Z,8.80
2019-05-17T08:11:11.632Z,9.50
2019-05-17T08:13:41.527Z,8.83
2019-05-17T08:16:11.884Z,8.83
2019-05-17T08:18:41.602Z,8.60
2019-05-17T08:21:11.559Z,9.87
2019-05-17T08:23:41.283Z,9.13
2019-05-17T08:26:11.012Z,8.47
2019-05-17T08:28:40.798Z,7.87
2019-05-17T08:31:10.877Z,7.97
2019-05-17T08:33:40.746Z,7.80
2019-05-17T08:36:11.731Z,7.43
2019-05-17T08:38:41.455Z,8.23
2019-05-17T08:41:11.135Z,7.90
2019-05-17T08:43:46.457Z,7.60
2019-05-17T08:46:12.668Z,7.53
2019-05-17T08:48:42.735Z,7.57
2019-05-17T08:51:12.392Z,8.00
2019-05-17T08:53:42.359Z,8.50
2019-05-17T08:56:12.304Z,8.00
2019-05-17T08:58:41.951Z,7.00
2019-05-17T09:01:11.649Z,8.10
2019-05-17T09:03:41.400Z,7.50
2019-05-17T09:06:12.465Z,8.63
2019-05-17T09:08:42.564Z,8.17
2019-05-17T09:11:12.497Z,8.63
2019-05-17T09:13:54.734Z,7.60
2019-05-17T09:16:13.759Z,7.60
2019-05-17T09:18:43.403Z,7.67
2019-05-17T09:21:13.339Z,7.77
2019-05-17T09:23:43.379Z,7.63
2019-05-17T09:26:13.122Z,6.80
2019-05-17T09:28:43.023Z,6.80
2019-05-17T09:31:12.683Z,7.20
2019-05-17T09:33:42.355Z,7.63
2019-05-17T09:36:12.013Z,7.63
2019-05-17T09:38:41.692Z,6.97
2019-05-17T09:41:11.331Z,6.90
2019-05-17T09:43:41.315Z,7.57
2019-05-17T09:46:11.928Z,7.23
2019-05-17T09:48:41.842Z,7.27
2019-05-17T09:51:11.641Z,7.47
2019-05-17T09:53:41.311Z,6.83
2019-05-17T09:56:10.989Z,7.57
2019-05-17T09:58:41.118Z,7.80
2019-05-17T10:01:10.912Z,7.20
2019-05-17T10:03:40.636Z,9.47
2019-05-17T10:06:10.311Z,13.00
2019-05-17T10:08:40.073Z,9.40
2019-05-17T10:11:12.181Z,8.80
2019-05-17T10:13:41.505Z,9.03
2019-05-17T10:16:11.152Z,7.37
2019-05-17T10:18:41.091Z,7.30
2019-05-17T10:21:10.843Z,7.60
2019-05-17T10:23:40.825Z,8.40
2019-05-17T10:26:10.614Z,8.50
2019-05-17T10:28:40.360Z,9.47
2019-05-17T10:31:11.272Z,9.07
2019-05-17T10:33:42.551Z,8.70
2019-05-17T10:36:12.507Z,9.10
2019-05-17T10:38:43.345Z,8.23
2019-05-17T10:41:13.219Z,8.50
2019-05-17T10:43:42.961Z,8.57
2019-05-17T10:46:12.698Z,8.43
2019-05-17T10:48:42.435Z,8.03
2019-05-17T10:51:13.513Z,8.30
2019-05-17T10:53:43.815Z,9.03
2019-05-17T10:56:13.475Z,8.73
2019-05-17T10:58:43.259Z,10.07
2019-05-17T11:01:12.922Z,9.57
2019-05-17T11:03:42.611Z,9.00
2019-05-17T11:06:12.373Z,8.00
2019-05-17T11:08:42.003Z,8.47
2019-05-17T11:11:11.663Z,8.77
2019-05-17T11:13:41.463Z,8.27
2019-05-17T11:16:11.176Z,8.70
2019-05-17T11:18:40.957Z,10.47
2019-05-17T11:21:10.691Z,8.90
2019-05-17T11:23:40.696Z,8.67
2019-05-17T11:26:10.676Z,11.57
2019-05-17T11:28:40.531Z,8.13
2019-05-17T11:31:10.275Z,9.03
2019-05-17T11:33:40.269Z,8.23
2019-05-17T11:36:09.963Z,8.57
2019-05-17T11:38:39.639Z,9.00
2019-05-17T11:41:20.533Z,8.60
2019-05-17T11:43:40.799Z,8.50
2019-05-17T11:46:10.484Z,8.37
2019-05-17T11:48:41.330Z,8.30
2019-05-17T11:51:11.620Z,8.30
2019-05-17T11:53:41.500Z,8.90
2019-05-17T11:56:11.420Z,8.33
2019-05-17T11:58:41.267Z,7.63
2019-05-17T12:01:11.485Z,8.60
2019-05-17T12:03:41.224Z,8.90
2019-05-17T12:06:11.488Z,7.37
2019-05-17T12:08:41.156Z,8.10
2019-05-17T12:11:11.246Z,8.00
2019-05-17T12:13:43.489Z,8.47
2019-05-17T12:16:12.471Z,7.53
2019-05-17T12:18:42.441Z,8.73
2019-05-17T12:21:12.419Z,7.87
2019-05-17T12:23:42.064Z,7.73
2019-05-17T12:26:11.804Z,7.73
2019-05-17T12:28:41.443Z,7.90
2019-05-17T12:31:11.896Z,8.13
2019-05-17T12:33:42.642Z,8.03
2019-05-17T12:36:12.351Z,7.57
2019-05-17T12:38:42.012Z,8.23
2019-05-17T12:41:11.683Z,8.10
2019-05-17T12:43:41.343Z,7.20
2019-05-17T12:46:10.995Z,8.00
2019-05-17T12:48:40.728Z,7.70
2019-05-17T12:51:10.388Z,8.50
2019-05-17T12:53:40.052Z,7.97
2019-05-17T12:56:09.782Z,7.83
2019-05-17T12:58:39.471Z,7.40
2019-05-17T13:01:09.252Z,7.43
2019-05-17T13:03:38.948Z,7.17
2019-05-17T13:06:08.905Z,7.80
2019-05-17T13:08:38.851Z,7.93
2019-05-17T13:11:08.515Z,8.07
2019-05-17T13:13:38.464Z,8.00
2019-05-17T13:16:17.572Z,7.53
2019-05-17T13:18:39.596Z,8.17
2019-05-17T13:21:09.315Z,8.27
2019-05-17T13:23:39.030Z,8.83
2019-05-17T13:26:08.732Z,8.10
2019-05-17T13:28:38.460Z,8.77
2019-05-17T13:31:08.197Z,8.53
2019-05-17T13:33:37.900Z,7.93
2019-05-17T13:36:07.904Z,7.30
2019-05-17T13:38:37.558Z,7.77
2019-05-17T13:41:07.219Z,8.13
2019-05-17T13:43:36.898Z,8.10
2019-05-17T13:46:06.732Z,8.00
2019-05-17T13:48:37.068Z,8.17
2019-05-17T13:51:06.773Z,8.00
2019-05-17T13:53:36.452Z,8.00
2019-05-17T13:56:06.198Z,8.33
2019-05-17T13:58:36.240Z,9.07
2019-05-17T14:01:05.969Z,8.80
2019-05-17T14:03:35.780Z,8.87
2019-05-17T14:06:05.588Z,9.13
2019-05-17T14:08:35.267Z,9.30
2019-05-17T14:11:05.103Z,8.73
2019-05-17T14:13:35.149Z,8.50
2019-05-17T14:16:05.137Z,8.77
2019-05-17T14:18:35.107Z,8.93
2019-05-17T14:21:04.804Z,8.70
2019-05-17T14:23:34.456Z,8.37
2019-05-17T14:26:04.466Z,8.63
2019-05-17T14:28:34.229Z,8.60
2019-05-17T14:31:03.960Z,8.60
2019-05-17T14:33:33.794Z,8.23
2019-05-17T14:36:03.671Z,8.70
2019-05-17T14:38:33.621Z,8.57
2019-05-17T14:41:07.669Z,8.20
2019-05-17T14:43:35.601Z,8.33
2019-05-17T14:46:06.427Z,8.70
2019-05-17T14:48:36.150Z,8.40
2019-05-17T14:51:06.196Z,8.23
2019-05-17T14:53:36.281Z,8.83
2019-05-17T14:56:06.369Z,9.03
2019-05-17T14:58:36.084Z,9.10
2019-05-17T15:01:05.835Z,8.93
2019-05-17T15:03:36.051Z,9.10
2019-05-17T15:06:05.776Z,9.33
2019-05-17T15:08:35.563Z,9.40
2019-05-17T15:11:05.496Z,8.07
2019-05-17T15:13:35.338Z,7.33
2019-05-17T15:16:05.447Z,7.47
2019-05-17T15:18:35.091Z,7.87
2019-05-17T15:21:05.237Z,7.50
2019-05-17T15:23:35.946Z,7.87
2019-05-17T15:26:05.979Z,7.27
2019-05-17T15:28:35.615Z,7.63
2019-05-17T15:31:05.271Z,6.97
2019-05-17T15:33:35.034Z,6.63
2019-05-17T15:36:04.860Z,7.67
2019-05-17T15:38:34.504Z,8.30
2019-05-17T15:41:04.159Z,12.13
2019-05-17T15:43:33.840Z,12.67
2019-05-17T15:46:03.615Z,12.47
2019-05-17T15:48:33.572Z,12.60
2019-05-17T15:51:03.616Z,12.90
2019-05-17T15:53:34.101Z,11.47
2019-05-17T15:56:03.923Z,11.23
2019-05-17T15:58:33.585Z,11.03
2019-05-17T16:01:03.312Z,11.87
2019-05-17T16:03:33.039Z,12.67
2019-05-17T16:06:03.021Z,12.87
2019-05-17T16:08:32.825Z,12.63
2019-05-17T16:11:02.523Z,12.70
2019-05-17T16:13:33.956Z,12.80
2019-05-17T16:16:03.847Z,15.33
2019-05-17T16:18:33.700Z,16.00
2019-05-17T16:21:03.839Z,11.90
2019-05-17T16:23:33.600Z,11.93
2019-05-17T16:26:03.543Z,11.53
2019-05-17T16:28:33.552Z,10.80
2019-05-17T16:31:03.451Z,10.67
2019-05-17T16:33:33.643Z,10.77
2019-05-17T16:36:03.361Z,10.20
2019-05-17T16:38:33.025Z,10.67
2019-05-17T16:41:03.020Z,9.63
2019-05-17T16:43:32.703Z,10.17
2019-05-17T16:46:02.367Z,9.50
2019-05-17T16:48:33.074Z,9.53
2019-05-17T16:51:03.827Z,9.23
2019-05-17T16:53:33.519Z,9.13
2019-05-17T16:56:03.681Z,9.43
2019-05-17T16:58:34.143Z,9.47
2019-05-17T17:01:04.234Z,9.23
2019-05-17T17:03:43.770Z,8.60
2019-05-17T17:06:05.764Z,8.60
2019-05-17T17:08:36.403Z,9.07
2019-05-17T17:11:06.241Z,8.93
2019-05-17T17:13:35.888Z,9.03
2019-05-17T17:16:05.612Z,9.00
2019-05-17T17:18:35.331Z,8.53
2019-05-17T17:21:05.463Z,8.10
2019-05-17T17:23:35.634Z,8.67
2019-05-17T17:26:05.624Z,8.97
2019-05-17T17:28:36.298Z,8.77
2019-05-17T17:31:09.364Z,8.70
2019-05-17T17:33:39.142Z,8.73
2019-05-17T17:36:08.755Z,9.43
2019-05-17T17:38:38.451Z,8.70
2019-05-17T17:41:08.275Z,8.93
2019-05-17T17:43:39.211Z,9.17
2019-05-17T17:46:08.956Z,9.00
2019-05-17T17:48:38.726Z,10.10
2019-05-17T17:51:08.496Z,9.47
2019-05-17T17:53:38.567Z,9.07
2019-05-17T17:56:08.750Z,9.20
2019-05-17T17:58:38.516Z,9.40
2019-05-17T18:01:08.415Z,9.37
2019-05-17T18:03:38.059Z,9.67
2019-05-17T18:06:07.732Z,9.00
2019-05-17T18:08:38.029Z,9.53
2019-05-17T18:11:08.163Z,9.73
2019-05-17T18:13:38.163Z,9.73
2019-05-17T18:16:07.918Z,9.47
2019-05-17T18:18:37.628Z,8.70
2019-05-17T18:21:07.951Z,9.70
2019-05-17T18:23:37.682Z,9.03
2019-05-17T18:26:07.512Z,9.40
2019-05-17T18:28:37.352Z,8.90
2019-05-17T18:31:07.112Z,9.77
2019-05-17T18:33:37.256Z,9.27
2019-05-17T18:36:07.138Z,8.50
2019-05-17T18:38:37.411Z,9.60
2019-05-17T18:41:07.604Z,9.90
2019-05-17T18:43:37.655Z,9.73
2019-05-17T18:46:07.667Z,9.17
2019-05-17T18:48:37.376Z,9.50
2019-05-17T18:51:07.061Z,9.93
2019-05-17T18:53:36.778Z,10.23
2019-05-17T18:56:06.459Z,11.03
2019-05-17T18:58:39.213Z,10.20
2019-05-17T19:01:07.485Z,10.67
2019-05-17T19:03:38.298Z,10.20
2019-05-17T19:06:08.124Z,10.10
2019-05-17T19:08:37.959Z,11.10
2019-05-17T19:11:07.934Z,9.80
2019-05-17T19:13:37.583Z,9.90
2019-05-17T19:16:08.088Z,10.40
2019-05-17T19:18:37.731Z,10.60
2019-05-17T19:21:07.520Z,10.83
2019-05-17T19:23:37.271Z,10.80
2019-05-17T19:26:07.282Z,11.30
2019-05-17T19:28:36.936Z,12.10
2019-05-17T19:31:06.639Z,12.20
2019-05-17T19:33:36.878Z,11.60
2019-05-17T19:36:06.601Z,13.07
2019-05-17T19:38:36.525Z,12.03
2019-05-17T19:41:06.214Z,12.50
2019-05-17T19:43:36.152Z,12.20
2019-05-17T19:46:06.120Z,12.63
2019-05-17T19:48:35.776Z,12.73
2019-05-17T19:51:05.525Z,12.70
2019-05-17T19:53:35.193Z,13.03
2019-05-17T19:56:04.843Z,15.27
2019-05-17T19:58:34.508Z,14.57
2019-05-17T20:01:04.495Z,15.40
2019-05-17T20:03:34.399Z,16.23
2019-05-17T20:06:04.172Z,16.90
2019-05-17T20:08:34.133Z,17.53
2019-05-17T20:11:03.871Z,17.33
2019-05-17T20:13:33.647Z,17.63
2019-05-17T20:16:03.363Z,18.27
2019-05-17T20:18:33.023Z,18.87
2019-05-17T20:21:03.220Z,18.50
2019-05-17T20:23:33.239Z,18.10
2019-05-17T20:26:02.968Z,18.43
2019-05-17T20:28:32.910Z,19.17
2019-05-17T20:31:02.591Z,18.13
2019-05-17T20:33:32.271Z,18.40
2019-05-17T20:36:01.916Z,18.50
2019-05-17T20:38:32.087Z,17.33
2019-05-17T20:41:01.835Z,18.93
2019-05-17T20:43:31.500Z,18.10
2019-05-17T20:46:01.179Z,18.40
2019-05-17T20:48:31.804Z,18.60
2019-05-17T20:51:01.466Z,18.90
2019-05-17T20:53:31.359Z,19.17
2019-05-17T20:56:01.063Z,18.30
2019-05-17T20:58:30.798Z,19.33
2019-05-17T21:01:00.644Z,18.63
2019-05-17T21:03:30.383Z,19.40
2019-05-17T21:06:00.035Z,19.33
2019-05-17T21:08:44.846Z,20.10
2019-05-17T21:11:01.143Z,18.77
2019-05-17T21:13:31.128Z,19.43
2019-05-17T21:16:00.779Z,19.47
2019-05-17T21:18:30.715Z,19.50
2019-05-17T21:21:00.445Z,19.83
2019-05-17T21:23:30.365Z,19.53
2019-05-17T21:26:00.087Z,18.73
2019-05-17T21:28:29.839Z,17.93
2019-05-17T21:30:59.524Z,18.87
2019-05-17T21:33:29.207Z,19.07
2019-05-17T21:35:58.991Z,19.07
2019-05-17T21:38:28.656Z,20.17
2019-05-17T21:40:58.335Z,19.90
2019-05-17T21:43:27.992Z,20.03
2019-05-17T21:46:04.128Z,21.53
2019-05-17T21:48:32.611Z,21.17
2019-05-17T21:51:02.375Z,20.80
2019-05-17T21:53:32.096Z,20.57
2019-05-17T21:56:01.767Z,21.23
2019-05-17T21:58:31.414Z,21.23
2019-05-17T22:01:17.564Z,22.77
2019-05-17T22:03:47.225Z,21.93
2019-05-17T22:06:17.520Z,22.03
2019-05-17T22:08:47.339Z,22.60
2019-05-17T22:11:17.144Z,21.83
2019-05-17T22:13:46.871Z,22.57
2019-05-17T22:16:19.932Z,21.60
2019-05-17T22:18:48.127Z,22.00
2019-05-17T22:21:17.928Z,22.77
2019-05-17T22:23:47.704Z,22.43
2019-05-17T22:26:17.496Z,22.53
2019-05-17T22:28:47.160Z,22.50
2019-05-17T22:31:16.955Z,22.90
2019-05-17T22:33:46.615Z,22.03
2019-05-17T22:36:16.624Z,22.50
2019-05-17T22:38:46.291Z,21.73
2019-05-17T22:41:16.273Z,20.67
2019-05-17T22:43:45.920Z,20.43
2019-05-17T22:46:16.953Z,21.30
2019-05-17T22:48:46.695Z,20.67
2019-05-17T22:51:16.631Z,20.90
2019-05-17T22:53:46.311Z,21.63
2019-05-17T22:56:16.375Z,21.17
2019-05-17T22:58:47.006Z,20.33
2019-05-17T23:01:16.731Z,20.60
2019-05-17T23:03:46.422Z,20.87
2019-05-17T23:06:16.346Z,20.57
2019-05-17T23:08:46.095Z,21.40
2019-05-17T23:11:15.768Z,22.20
2019-05-17T23:13:45.443Z,20.83
2019-05-17T23:16:15.091Z,21.07
2019-05-17T23:19:03.832Z,22.20
2019-05-17T23:21:33.564Z,22.40
2019-05-17T23:24:03.407Z,21.00
2019-05-17T23:26:33.312Z,20.33
2019-05-17T23:29:04.380Z,19.67
2019-05-17T23:31:34.304Z,21.67
2019-05-17T23:34:04.099Z,20.83
2019-05-17T23:36:33.995Z,21.03
2019-05-17T23:39:05.153Z,21.10
2019-05-17T23:41:34.855Z,20.83
2019-05-17T23:44:04.695Z,20.73
2019-05-17T23:46:34.615Z,20.97
2019-05-17T23:49:04.532Z,21.03
2019-05-17T23:51:34.451Z,21.13
2019-05-17T23:54:04.292Z,21.23
2019-05-17T23:56:34.000Z,21.30
2019-05-17T23:59:04.131Z,21.03
